PILOTS ONLINE: 227    ATC ONLINE: 43

CYYH

Taloyoak Airport

Location

IATA YYH
City Taloyoak
Country  Canada
Latitude 69° 32' 48" N
Longitude 93° 34' 36" W
Elevation 92 ft
Type Medium Airport

Map

Weather

METAR
2014/08/22 03:00
CYYH 220300Z 31010KT 15SM FEW012 FEW020 SCT030 SCT080 05/02 A3020 RMK SC0SC2SC0AS1 SLP231
TAF
2014/08/21 18:42
TAF CYYH 211738Z 2118/2206 VRB03KT P6SM FEW005 SCT012 BKN025 
      TEMPO 2118/2203 5SM BR SCT005 BKN012 OVC025 
      BECMG 2120/2122 32010KT 
     FM220300 32010KT P6SM SCT030 
      TEMPO 2203/2206 BKN030 
      RMK NXT FCST BY 220000Z

Runways

15T/33T 4020 ft / 100 ft

Outbound flights

Callsign Flying to Pilot ATD/STD ETA Aircraft

Inbound flights

Callsign Flying from Pilot ATD ETA Aircraft